sensor_id;sensor_type;location;lat;lon;timestamp;P1;durP1;ratioP1;P2;durP2;ratioP2
61617;SDS011;47518;51.776;9.370;2023-02-12T00:01:09;38.40;;;21.63;;
61617;SDS011;47518;51.776;9.370;2023-02-12T00:03:36;35.95;;;20.92;;
61617;SDS011;47518;51.776;9.370;2023-02-12T00:06:02;42.08;;;22.73;;
61617;SDS011;47518;51.776;9.370;2023-02-12T00:08:28;39.63;;;23.50;;
61617;SDS011;47518;51.776;9.370;2023-02-12T00:10:53;33.72;;;20.73;;
61617;SDS011;47518;51.776;9.370;2023-02-12T00:13:18;36.28;;;21.55;;
61617;SDS011;47518;51.776;9.370;2023-02-12T00:15:44;34.03;;;20.95;;
61617;SDS011;47518;51.776;9.370;2023-02-12T00:18:09;35.05;;;21.70;;
61617;SDS011;47518;51.776;9.370;2023-02-12T00:20:35;36.75;;;22.00;;
61617;SDS011;47518;51.776;9.370;2023-02-12T00:23:01;34.60;;;20.80;;
61617;SDS011;47518;51.776;9.370;2023-02-12T00:25:27;36.95;;;21.15;;
61617;SDS011;47518;51.776;9.370;2023-02-12T00:27:52;35.40;;;20.98;;
61617;SDS011;47518;51.776;9.370;2023-02-12T00:30:17;34.03;;;20.85;;
61617;SDS011;47518;51.776;9.370;2023-02-12T00:32:44;32.25;;;19.52;;
61617;SDS011;47518;51.776;9.370;2023-02-12T00:35:09;35.28;;;20.85;;
61617;SDS011;47518;51.776;9.370;2023-02-12T00:37:35;35.50;;;20.77;;
61617;SDS011;47518;51.776;9.370;2023-02-12T00:40:00;33.78;;;20.13;;
61617;SDS011;47518;51.776;9.370;2023-02-12T00:42:25;30.05;;;18.77;;
61617;SDS011;47518;51.776;9.370;2023-02-12T00:44:50;30.80;;;19.35;;
61617;SDS011;47518;51.776;9.370;2023-02-12T00:47:16;34.60;;;19.67;;
61617;SDS011;47518;51.776;9.370;2023-02-12T00:49:41;34.33;;;19.20;;
61617;SDS011;47518;51.776;9.370;2023-02-12T00:52:06;30.63;;;19.10;;
61617;SDS011;47518;51.776;9.370;2023-02-12T00:54:32;31.92;;;19.13;;
61617;SDS011;47518;51.776;9.370;2023-02-12T00:56:57;30.00;;;17.95;;
61617;SDS011;47518;51.776;9.370;2023-02-12T00:59:24;32.58;;;18.98;;
61617;SDS011;47518;51.776;9.370;2023-02-12T01:01:50;29.13;;;18.60;;
61617;SDS011;47518;51.776;9.370;2023-02-12T01:04:16;36.28;;;20.70;;
61617;SDS011;47518;51.776;9.370;2023-02-12T01:06:42;31.42;;;18.25;;
61617;SDS011;47518;51.776;9.370;2023-02-12T01:09:07;28.35;;;18.45;;
61617;SDS011;47518;51.776;9.370;2023-02-12T01:11:32;35.15;;;20.23;;
61617;SDS011;47518;51.776;9.370;2023-02-12T01:13:58;32.70;;;20.33;;
61617;SDS011;47518;51.776;9.370;2023-02-12T01:16:24;33.08;;;19.98;;
61617;SDS011;47518;51.776;9.370;2023-02-12T01:18:51;28.38;;;16.77;;
61617;SDS011;47518;51.776;9.370;2023-02-12T01:21:18;30.10;;;17.60;;
61617;SDS011;47518;51.776;9.370;2023-02-12T01:23:47;26.08;;;16.42;;
61617;SDS011;47518;51.776;9.370;2023-02-12T01:26:13;29.48;;;18.38;;
61617;SDS011;47518;51.776;9.370;2023-02-12T01:28:40;29.00;;;17.60;;
61617;SDS011;47518;51.776;9.370;2023-02-12T01:31:08;27.88;;;17.50;;
61617;SDS011;47518;51.776;9.370;2023-02-12T01:33:36;30.00;;;18.40;;
61617;SDS011;47518;51.776;9.370;2023-02-12T01:36:01;25.23;;;16.05;;
61617;SDS011;47518;51.776;9.370;2023-02-12T01:38:27;28.45;;;17.65;;
61617;SDS011;47518;51.776;9.370;2023-02-12T01:40:52;24.50;;;16.83;;
61617;SDS011;47518;51.776;9.370;2023-02-12T01:43:17;27.67;;;17.63;;
61617;SDS011;47518;51.776;9.370;2023-02-12T01:45:44;31.17;;;17.98;;
61617;SDS011;47518;51.776;9.370;2023-02-12T01:48:13;27.00;;;16.85;;
61617;SDS011;47518;51.776;9.370;2023-02-12T01:50:41;29.08;;;18.02;;
61617;SDS011;47518;51.776;9.370;2023-02-12T01:53:08;30.90;;;18.17;;
61617;SDS011;47518;51.776;9.370;2023-02-12T01:55:34;32.05;;;18.45;;
61617;SDS011;47518;51.776;9.370;2023-02-12T01:57:59;34.53;;;19.92;;
61617;SDS011;47518;51.776;9.370;2023-02-12T02:00:24;31.20;;;18.73;;
61617;SDS011;47518;51.776;9.370;2023-02-12T02:02:52;31.70;;;19.50;;
61617;SDS011;47518;51.776;9.370;2023-02-12T02:05:23;30.88;;;18.05;;
61617;SDS011;47518;51.776;9.370;2023-02-12T02:07:57;32.65;;;19.17;;
61617;SDS011;47518;51.776;9.370;2023-02-12T02:10:23;35.47;;;20.50;;
61617;SDS011;47518;51.776;9.370;2023-02-12T02:12:48;34.53;;;20.25;;
61617;SDS011;47518;51.776;9.370;2023-02-12T02:15:33;36.45;;;20.00;;
61617;SDS011;47518;51.776;9.370;2023-02-12T02:18:02;33.13;;;19.92;;
61617;SDS011;47518;51.776;9.370;2023-02-12T02:33:58;36.05;;;19.25;;
61617;SDS011;47518;51.776;9.370;2023-02-12T02:47:10;36.85;;;19.15;;
61617;SDS011;47518;51.776;9.370;2023-02-12T02:49:39;39.95;;;20.95;;
61617;SDS011;47518;51.776;9.370;2023-02-12T02:52:11;38.78;;;20.55;;
61617;SDS011;47518;51.776;9.370;2023-02-12T02:54:43;36.38;;;20.65;;
61617;SDS011;47518;51.776;9.370;2023-02-12T03:10:20;32.95;;;18.27;;
61617;SDS011;47518;51.776;9.370;2023-02-12T03:12:52;33.55;;;18.90;;
61617;SDS011;47518;51.776;9.370;2023-02-12T03:15:24;36.50;;;19.77;;
61617;SDS011;47518;51.776;9.370;2023-02-12T03:18:03;31.85;;;18.40;;
61617;SDS011;47518;51.776;9.370;2023-02-12T03:20:34;32.08;;;19.27;;
61617;SDS011;47518;51.776;9.370;2023-02-12T03:23:06;35.80;;;18.60;;
61617;SDS011;47518;51.776;9.370;2023-02-12T03:25:38;30.92;;;17.08;;
61617;SDS011;47518;51.776;9.370;2023-02-12T03:28:12;35.78;;;18.48;;
61617;SDS011;47518;51.776;9.370;2023-02-12T03:30:44;29.80;;;17.83;;
61617;SDS011;47518;51.776;9.370;2023-02-12T03:33:18;30.23;;;17.10;;
61617;SDS011;47518;51.776;9.370;2023-02-12T03:35:58;27.88;;;16.38;;
61617;SDS011;47518;51.776;9.370;2023-02-12T03:56:48;27.65;;;15.70;;
61617;SDS011;47518;51.776;9.370;2023-02-12T03:59:18;24.67;;;15.32;;
61617;SDS011;47518;51.776;9.370;2023-02-12T04:01:44;26.55;;;15.05;;
61617;SDS011;47518;51.776;9.370;2023-02-12T04:04:11;24.52;;;15.57;;
61617;SDS011;47518;51.776;9.370;2023-02-12T04:06:36;25.95;;;15.45;;
61617;SDS011;47518;51.776;9.370;2023-02-12T04:09:04;24.42;;;15.32;;
61617;SDS011;47518;51.776;9.370;2023-02-12T04:25:06;21.00;;;13.38;;
61617;SDS011;47518;51.776;9.370;2023-02-12T04:38:21;22.42;;;14.98;;
61617;SDS011;47518;51.776;9.370;2023-02-12T04:40:50;23.20;;;14.52;;
61617;SDS011;47518;51.776;9.370;2023-02-12T04:43:33;24.38;;;14.88;;
61617;SDS011;47518;51.776;9.370;2023-02-12T04:46:00;23.25;;;14.45;;
61617;SDS011;47518;51.776;9.370;2023-02-12T04:48:26;22.25;;;14.75;;
61617;SDS011;47518;51.776;9.370;2023-02-12T04:50:52;24.10;;;14.73;;
61617;SDS011;47518;51.776;9.370;2023-02-12T04:53:17;24.60;;;14.80;;
61617;SDS011;47518;51.776;9.370;2023-02-12T04:55:42;23.08;;;14.50;;
61617;SDS011;47518;51.776;9.370;2023-02-12T04:58:08;24.95;;;15.00;;
61617;SDS011;47518;51.776;9.370;2023-02-12T05:00:33;23.15;;;14.55;;
61617;SDS011;47518;51.776;9.370;2023-02-12T05:02:59;22.75;;;13.63;;
61617;SDS011;47518;51.776;9.370;2023-02-12T05:05:24;22.63;;;13.95;;
61617;SDS011;47518;51.776;9.370;2023-02-12T05:07:50;23.63;;;14.80;;
61617;SDS011;47518;51.776;9.370;2023-02-12T05:10:16;23.05;;;14.63;;
61617;SDS011;47518;51.776;9.370;2023-02-12T05:12:41;23.05;;;14.40;;
61617;SDS011;47518;51.776;9.370;2023-02-12T05:15:06;22.88;;;14.63;;
61617;SDS011;47518;51.776;9.370;2023-02-12T05:17:33;23.45;;;14.50;;
61617;SDS011;47518;51.776;9.370;2023-02-12T05:19:58;21.55;;;14.30;;
61617;SDS011;47518;51.776;9.370;2023-02-12T05:22:23;26.23;;;15.57;;
61617;SDS011;47518;51.776;9.370;2023-02-12T05:24:49;23.33;;;14.25;;
61617;SDS011;47518;51.776;9.370;2023-02-12T05:27:14;23.35;;;13.82;;
61617;SDS011;47518;51.776;9.370;2023-02-12T05:29:40;23.70;;;14.38;;
61617;SDS011;47518;51.776;9.370;2023-02-12T05:32:05;21.83;;;14.15;;
61617;SDS011;47518;51.776;9.370;2023-02-12T05:34:31;20.88;;;13.45;;
61617;SDS011;47518;51.776;9.370;2023-02-12T05:36:57;25.90;;;15.63;;
61617;SDS011;47518;51.776;9.370;2023-02-12T05:39:23;19.73;;;13.63;;
61617;SDS011;47518;51.776;9.370;2023-02-12T05:41:48;20.85;;;13.68;;
61617;SDS011;47518;51.776;9.370;2023-02-12T05:44:13;23.80;;;13.77;;
61617;SDS011;47518;51.776;9.370;2023-02-12T05:46:39;22.90;;;14.00;;
61617;SDS011;47518;51.776;9.370;2023-02-12T05:49:05;21.15;;;13.75;;
61617;SDS011;47518;51.776;9.370;2023-02-12T05:51:31;24.05;;;14.25;;
61617;SDS011;47518;51.776;9.370;2023-02-12T05:53:58;22.20;;;13.73;;
61617;SDS011;47518;51.776;9.370;2023-02-12T05:56:26;25.77;;;15.20;;
61617;SDS011;47518;51.776;9.370;2023-02-12T05:58:55;21.77;;;14.18;;
61617;SDS011;47518;51.776;9.370;2023-02-12T06:01:25;20.10;;;13.30;;
61617;SDS011;47518;51.776;9.370;2023-02-12T06:03:53;22.92;;;13.90;;
61617;SDS011;47518;51.776;9.370;2023-02-12T06:06:19;21.13;;;13.73;;
61617;SDS011;47518;51.776;9.370;2023-02-12T06:08:46;21.88;;;14.35;;
61617;SDS011;47518;51.776;9.370;2023-02-12T06:38:29;23.83;;;15.05;;
61617;SDS011;47518;51.776;9.370;2023-02-12T06:40:54;21.67;;;14.82;;
61617;SDS011;47518;51.776;9.370;2023-02-12T06:43:19;23.45;;;14.90;;
61617;SDS011;47518;51.776;9.370;2023-02-12T06:45:44;21.67;;;14.15;;
61617;SDS011;47518;51.776;9.370;2023-02-12T06:48:10;21.48;;;14.70;;
61617;SDS011;47518;51.776;9.370;2023-02-12T06:50:35;18.65;;;12.95;;
61617;SDS011;47518;51.776;9.370;2023-02-12T06:53:00;24.33;;;14.18;;
61617;SDS011;47518;51.776;9.370;2023-02-12T06:55:26;20.38;;;13.52;;
61617;SDS011;47518;51.776;9.370;2023-02-12T06:57:51;20.80;;;13.63;;
61617;SDS011;47518;51.776;9.370;2023-02-12T07:00:16;22.67;;;15.38;;
61617;SDS011;47518;51.776;9.370;2023-02-12T07:02:42;21.85;;;13.57;;
61617;SDS011;47518;51.776;9.370;2023-02-12T07:05:07;22.20;;;14.82;;
61617;SDS011;47518;51.776;9.370;2023-02-12T07:07:34;24.00;;;14.27;;
61617;SDS011;47518;51.776;9.370;2023-02-12T07:09:59;20.75;;;13.57;;
61617;SDS011;47518;51.776;9.370;2023-02-12T07:12:25;22.73;;;15.10;;
61617;SDS011;47518;51.776;9.370;2023-02-12T07:14:50;24.30;;;14.98;;
61617;SDS011;47518;51.776;9.370;2023-02-12T07:17:15;22.55;;;14.80;;
61617;SDS011;47518;51.776;9.370;2023-02-12T07:19:40;22.88;;;14.73;;
61617;SDS011;47518;51.776;9.370;2023-02-12T07:22:06;23.85;;;14.88;;
61617;SDS011;47518;51.776;9.370;2023-02-12T07:24:31;20.95;;;14.23;;
61617;SDS011;47518;51.776;9.370;2023-02-12T07:26:56;22.10;;;14.52;;
61617;SDS011;47518;51.776;9.370;2023-02-12T07:29:22;22.63;;;15.02;;
61617;SDS011;47518;51.776;9.370;2023-02-12T07:31:47;23.60;;;14.48;;
61617;SDS011;47518;51.776;9.370;2023-02-12T07:34:12;22.50;;;14.32;;
61617;SDS011;47518;51.776;9.370;2023-02-12T07:36:37;24.45;;;14.23;;
61617;SDS011;47518;51.776;9.370;2023-02-12T07:39:03;20.92;;;13.73;;
61617;SDS011;47518;51.776;9.370;2023-02-12T07:41:30;22.73;;;14.57;;
61617;SDS011;47518;51.776;9.370;2023-02-12T07:43:58;20.85;;;13.73;;
61617;SDS011;47518;51.776;9.370;2023-02-12T07:46:28;21.83;;;14.32;;
61617;SDS011;47518;51.776;9.370;2023-02-12T07:48:57;27.27;;;15.80;;
61617;SDS011;47518;51.776;9.370;2023-02-12T07:51:23;27.48;;;16.63;;
61617;SDS011;47518;51.776;9.370;2023-02-12T07:53:49;27.52;;;17.38;;
61617;SDS011;47518;51.776;9.370;2023-02-12T07:56:17;24.15;;;15.60;;
61617;SDS011;47518;51.776;9.370;2023-02-12T07:58:45;26.90;;;17.13;;
61617;SDS011;47518;51.776;9.370;2023-02-12T08:01:14;27.33;;;17.77;;
61617;SDS011;47518;51.776;9.370;2023-02-12T08:03:41;30.52;;;18.77;;
61617;SDS011;47518;51.776;9.370;2023-02-12T08:06:08;33.63;;;18.92;;
61617;SDS011;47518;51.776;9.370;2023-02-12T08:08:34;27.50;;;17.63;;
61617;SDS011;47518;51.776;9.370;2023-02-12T08:10:59;31.80;;;18.35;;
61617;SDS011;47518;51.776;9.370;2023-02-12T08:13:25;29.73;;;17.95;;
61617;SDS011;47518;51.776;9.370;2023-02-12T08:15:58;26.02;;;16.00;;
61617;SDS011;47518;51.776;9.370;2023-02-12T08:18:24;27.77;;;17.13;;
61617;SDS011;47518;51.776;9.370;2023-02-12T08:20:49;27.50;;;17.10;;
61617;SDS011;47518;51.776;9.370;2023-02-12T08:23:14;27.70;;;17.17;;
61617;SDS011;47518;51.776;9.370;2023-02-12T08:25:39;27.92;;;16.77;;
61617;SDS011;47518;51.776;9.370;2023-02-12T08:28:05;25.63;;;16.30;;
61617;SDS011;47518;51.776;9.370;2023-02-12T08:30:30;28.52;;;16.83;;
61617;SDS011;47518;51.776;9.370;2023-02-12T08:32:55;27.58;;;16.65;;
61617;SDS011;47518;51.776;9.370;2023-02-12T08:35:21;24.42;;;16.33;;
61617;SDS011;47518;51.776;9.370;2023-02-12T08:37:46;24.83;;;16.08;;
61617;SDS011;47518;51.776;9.370;2023-02-12T08:40:11;25.73;;;15.90;;
61617;SDS011;47518;51.776;9.370;2023-02-12T08:42:37;26.90;;;16.10;;
61617;SDS011;47518;51.776;9.370;2023-02-12T08:45:03;24.67;;;16.05;;
61617;SDS011;47518;51.776;9.370;2023-02-12T08:47:28;25.23;;;16.23;;
61617;SDS011;47518;51.776;9.370;2023-02-12T08:49:54;25.95;;;15.95;;
61617;SDS011;47518;51.776;9.370;2023-02-12T08:52:19;23.88;;;15.30;;
61617;SDS011;47518;51.776;9.370;2023-02-12T08:54:44;26.42;;;16.17;;
61617;SDS011;47518;51.776;9.370;2023-02-12T08:57:09;25.70;;;15.57;;
61617;SDS011;47518;51.776;9.370;2023-02-12T08:59:35;25.42;;;15.35;;
61617;SDS011;47518;51.776;9.370;2023-02-12T09:02:00;32.25;;;17.55;;
61617;SDS011;47518;51.776;9.370;2023-02-12T09:04:27;27.88;;;16.55;;
61617;SDS011;47518;51.776;9.370;2023-02-12T09:06:53;28.55;;;17.02;;
61617;SDS011;47518;51.776;9.370;2023-02-12T09:09:19;27.75;;;16.38;;
61617;SDS011;47518;51.776;9.370;2023-02-12T09:11:45;29.75;;;17.85;;
61617;SDS011;47518;51.776;9.370;2023-02-12T09:14:12;30.98;;;18.10;;
61617;SDS011;47518;51.776;9.370;2023-02-12T09:16:39;31.10;;;17.85;;
61617;SDS011;47518;51.776;9.370;2023-02-12T09:19:05;33.45;;;18.67;;
61617;SDS011;47518;51.776;9.370;2023-02-12T09:21:31;29.95;;;17.63;;
61617;SDS011;47518;51.776;9.370;2023-02-12T09:23:57;29.42;;;17.48;;
61617;SDS011;47518;51.776;9.370;2023-02-12T09:26:23;32.28;;;18.02;;
61617;SDS011;47518;51.776;9.370;2023-02-12T09:28:50;30.30;;;18.58;;
61617;SDS011;47518;51.776;9.370;2023-02-12T09:31:18;28.58;;;16.67;;
61617;SDS011;47518;51.776;9.370;2023-02-12T09:33:46;31.20;;;17.65;;
61617;SDS011;47518;51.776;9.370;2023-02-12T09:36:14;29.92;;;17.58;;
61617;SDS011;47518;51.776;9.370;2023-02-12T09:38:41;30.88;;;17.30;;
61617;SDS011;47518;51.776;9.370;2023-02-12T09:54:14;26.05;;;16.25;;
61617;SDS011;47518;51.776;9.370;2023-02-12T09:56:43;27.10;;;16.27;;
61617;SDS011;47518;51.776;9.370;2023-02-12T09:59:15;28.45;;;16.63;;
61617;SDS011;47518;51.776;9.370;2023-02-12T10:01:48;23.83;;;15.32;;
61617;SDS011;47518;51.776;9.370;2023-02-12T10:04:13;27.27;;;16.25;;
61617;SDS011;47518;51.776;9.370;2023-02-12T10:06:44;25.83;;;16.35;;
61617;SDS011;47518;51.776;9.370;2023-02-12T10:09:24;26.58;;;16.45;;
61617;SDS011;47518;51.776;9.370;2023-02-12T10:12:06;26.40;;;16.77;;
61617;SDS011;47518;51.776;9.370;2023-02-12T10:14:55;28.70;;;17.15;;
61617;SDS011;47518;51.776;9.370;2023-02-12T10:28:08;26.65;;;16.00;;
61617;SDS011;47518;51.776;9.370;2023-02-12T10:30:47;29.13;;;16.83;;
61617;SDS011;47518;51.776;9.370;2023-02-12T10:33:19;27.05;;;16.33;;
61617;SDS011;47518;51.776;9.370;2023-02-12T10:35:54;31.55;;;17.23;;
61617;SDS011;47518;51.776;9.370;2023-02-12T10:38:27;27.45;;;16.58;;
61617;SDS011;47518;51.776;9.370;2023-02-12T10:40:57;25.20;;;15.82;;
61617;SDS011;47518;51.776;9.370;2023-02-12T10:43:25;24.92;;;15.73;;
61617;SDS011;47518;51.776;9.370;2023-02-12T10:45:51;25.13;;;15.52;;
61617;SDS011;47518;51.776;9.370;2023-02-12T10:48:18;25.83;;;15.48;;
61617;SDS011;47518;51.776;9.370;2023-02-12T11:03:55;25.10;;;15.25;;
61617;SDS011;47518;51.776;9.370;2023-02-12T11:06:28;24.58;;;15.82;;
61617;SDS011;47518;51.776;9.370;2023-02-12T11:08:56;25.63;;;15.90;;
61617;SDS011;47518;51.776;9.370;2023-02-12T11:11:23;27.80;;;16.85;;
61617;SDS011;47518;51.776;9.370;2023-02-12T11:13:53;23.73;;;15.50;;
61617;SDS011;47518;51.776;9.370;2023-02-12T11:16:26;25.10;;;15.38;;
61617;SDS011;47518;51.776;9.370;2023-02-12T11:18:56;24.93;;;16.13;;
61617;SDS011;47518;51.776;9.370;2023-02-12T11:21:24;23.85;;;14.45;;
61617;SDS011;47518;51.776;9.370;2023-02-12T11:23:49;21.08;;;13.60;;
61617;SDS011;47518;51.776;9.370;2023-02-12T11:52:34;20.70;;;12.38;;
61617;SDS011;47518;51.776;9.370;2023-02-12T11:55:03;19.88;;;12.50;;
61617;SDS011;47518;51.776;9.370;2023-02-12T11:57:34;21.25;;;12.55;;
61617;SDS011;47518;51.776;9.370;2023-02-12T12:18:36;17.98;;;11.10;;
61617;SDS011;47518;51.776;9.370;2023-02-12T12:49:02;15.02;;;10.88;;
61617;SDS011;47518;51.776;9.370;2023-02-12T12:51:59;16.77;;;11.07;;
61617;SDS011;47518;51.776;9.370;2023-02-12T12:54:43;15.82;;;10.95;;
61617;SDS011;47518;51.776;9.370;2023-02-12T13:10:43;17.40;;;10.10;;
61617;SDS011;47518;51.776;9.370;2023-02-12T13:13:32;17.63;;;10.63;;
61617;SDS011;47518;51.776;9.370;2023-02-12T13:31:46;15.43;;;9.50;;
61617;SDS011;47518;51.776;9.370;2023-02-12T13:34:15;15.88;;;9.93;;
61617;SDS011;47518;51.776;9.370;2023-02-12T13:36:42;14.70;;;9.10;;
61617;SDS011;47518;51.776;9.370;2023-02-12T13:39:26;17.67;;;9.32;;
61617;SDS011;47518;51.776;9.370;2023-02-12T13:44:56;17.77;;;9.27;;
61617;SDS011;47518;51.776;9.370;2023-02-12T14:11:18;16.75;;;9.93;;
61617;SDS011;47518;51.776;9.370;2023-02-12T14:14:01;15.93;;;10.07;;
61617;SDS011;47518;51.776;9.370;2023-02-12T14:51:10;17.75;;;10.55;;
61617;SDS011;47518;51.776;9.370;2023-02-12T14:53:41;19.15;;;10.65;;
61617;SDS011;47518;51.776;9.370;2023-02-12T14:56:10;17.70;;;10.75;;
61617;SDS011;47518;51.776;9.370;2023-02-12T14:58:36;19.45;;;12.15;;
61617;SDS011;47518;51.776;9.370;2023-02-12T15:01:02;20.55;;;12.20;;
61617;SDS011;47518;51.776;9.370;2023-02-12T15:03:33;18.10;;;11.60;;
61617;SDS011;47518;51.776;9.370;2023-02-12T15:06:22;21.67;;;12.38;;
61617;SDS011;47518;51.776;9.370;2023-02-12T15:09:02;15.93;;;11.25;;
61617;SDS011;47518;51.776;9.370;2023-02-12T15:24:43;19.23;;;11.80;;
61617;SDS011;47518;51.776;9.370;2023-02-12T15:27:10;19.75;;;11.68;;
61617;SDS011;47518;51.776;9.370;2023-02-12T15:29:40;19.45;;;11.55;;
61617;SDS011;47518;51.776;9.370;2023-02-12T15:32:12;20.65;;;12.35;;
61617;SDS011;47518;51.776;9.370;2023-02-12T15:34:42;23.20;;;14.45;;
61617;SDS011;47518;51.776;9.370;2023-02-12T15:37:14;22.88;;;14.70;;
61617;SDS011;47518;51.776;9.370;2023-02-12T15:39:45;22.58;;;14.10;;
61617;SDS011;47518;51.776;9.370;2023-02-12T15:45:06;20.27;;;12.45;;
61617;SDS011;47518;51.776;9.370;2023-02-12T15:47:42;16.88;;;11.00;;
61617;SDS011;47518;51.776;9.370;2023-02-12T15:50:11;21.08;;;11.77;;
61617;SDS011;47518;51.776;9.370;2023-02-12T15:52:38;19.80;;;11.25;;
61617;SDS011;47518;51.776;9.370;2023-02-12T15:55:06;17.75;;;10.65;;
61617;SDS011;47518;51.776;9.370;2023-02-12T15:57:39;17.23;;;10.77;;
61617;SDS011;47518;51.776;9.370;2023-02-12T16:00:21;18.83;;;11.45;;
61617;SDS011;47518;51.776;9.370;2023-02-12T16:06:12;16.98;;;10.48;;
61617;SDS011;47518;51.776;9.370;2023-02-12T16:08:41;15.95;;;9.45;;
61617;SDS011;47518;51.776;9.370;2023-02-12T16:11:09;14.80;;;8.88;;
61617;SDS011;47518;51.776;9.370;2023-02-12T16:13:39;18.25;;;10.32;;
61617;SDS011;47518;51.776;9.370;2023-02-12T16:29:16;18.27;;;9.70;;
61617;SDS011;47518;51.776;9.370;2023-02-12T16:31:59;15.60;;;10.00;;
61617;SDS011;47518;51.776;9.370;2023-02-12T16:34:27;14.15;;;9.07;;
61617;SDS011;47518;51.776;9.370;2023-02-12T16:36:55;15.50;;;9.63;;
61617;SDS011;47518;51.776;9.370;2023-02-12T16:53:04;12.73;;;7.75;;
61617;SDS011;47518;51.776;9.370;2023-02-12T16:55:31;13.30;;;8.13;;
61617;SDS011;47518;51.776;9.370;2023-02-12T16:57:56;12.40;;;8.00;;
61617;SDS011;47518;51.776;9.370;2023-02-12T17:00:22;11.48;;;7.82;;
61617;SDS011;47518;51.776;9.370;2023-02-12T17:02:48;10.57;;;7.65;;
61617;SDS011;47518;51.776;9.370;2023-02-12T17:05:14;11.38;;;7.50;;
61617;SDS011;47518;51.776;9.370;2023-02-12T17:07:42;12.80;;;8.05;;
61617;SDS011;47518;51.776;9.370;2023-02-12T17:10:12;12.55;;;7.93;;
61617;SDS011;47518;51.776;9.370;2023-02-12T17:12:46;9.77;;;7.35;;
61617;SDS011;47518;51.776;9.370;2023-02-12T17:15:16;11.77;;;7.65;;
61617;SDS011;47518;51.776;9.370;2023-02-12T17:17:46;15.38;;;8.98;;
61617;SDS011;47518;51.776;9.370;2023-02-12T17:20:11;14.25;;;8.80;;
61617;SDS011;47518;51.776;9.370;2023-02-12T17:22:36;11.48;;;8.10;;
61617;SDS011;47518;51.776;9.370;2023-02-12T17:25:02;12.30;;;8.07;;
61617;SDS011;47518;51.776;9.370;2023-02-12T17:27:27;12.48;;;8.35;;
61617;SDS011;47518;51.776;9.370;2023-02-12T17:29:53;14.10;;;8.38;;
61617;SDS011;47518;51.776;9.370;2023-02-12T17:32:18;10.90;;;8.25;;
61617;SDS011;47518;51.776;9.370;2023-02-12T17:34:43;14.00;;;9.02;;
61617;SDS011;47518;51.776;9.370;2023-02-12T17:37:09;12.35;;;8.27;;
61617;SDS011;47518;51.776;9.370;2023-02-12T17:39:34;14.60;;;8.35;;
61617;SDS011;47518;51.776;9.370;2023-02-12T17:42:00;14.52;;;8.73;;
61617;SDS011;47518;51.776;9.370;2023-02-12T17:44:26;12.88;;;9.00;;
61617;SDS011;47518;51.776;9.370;2023-02-12T17:46:52;13.18;;;8.73;;
61617;SDS011;47518;51.776;9.370;2023-02-12T17:49:17;17.27;;;8.98;;
61617;SDS011;47518;51.776;9.370;2023-02-12T17:51:43;13.20;;;8.43;;
61617;SDS011;47518;51.776;9.370;2023-02-12T17:54:08;14.27;;;9.20;;
61617;SDS011;47518;51.776;9.370;2023-02-12T17:56:33;15.90;;;9.25;;
61617;SDS011;47518;51.776;9.370;2023-02-12T17:58:59;12.60;;;8.27;;
61617;SDS011;47518;51.776;9.370;2023-02-12T18:01:24;13.65;;;8.55;;
61617;SDS011;47518;51.776;9.370;2023-02-12T18:03:50;12.68;;;8.40;;
61617;SDS011;47518;51.776;9.370;2023-02-12T18:06:21;13.15;;;9.10;;
61617;SDS011;47518;51.776;9.370;2023-02-12T18:08:48;16.27;;;9.48;;
61617;SDS011;47518;51.776;9.370;2023-02-12T18:11:13;15.38;;;9.68;;
61617;SDS011;47518;51.776;9.370;2023-02-12T18:13:39;14.40;;;9.82;;
61617;SDS011;47518;51.776;9.370;2023-02-12T18:16:07;13.88;;;9.68;;
61617;SDS011;47518;51.776;9.370;2023-02-12T18:18:34;13.48;;;9.32;;
61617;SDS011;47518;51.776;9.370;2023-02-12T18:21:00;14.65;;;9.25;;
61617;SDS011;47518;51.776;9.370;2023-02-12T18:23:25;14.93;;;9.43;;
61617;SDS011;47518;51.776;9.370;2023-02-12T18:25:51;14.75;;;9.55;;
61617;SDS011;47518;51.776;9.370;2023-02-12T18:28:16;14.35;;;9.43;;
61617;SDS011;47518;51.776;9.370;2023-02-12T18:30:41;13.95;;;9.20;;
61617;SDS011;47518;51.776;9.370;2023-02-12T18:33:07;16.40;;;9.70;;
61617;SDS011;47518;51.776;9.370;2023-02-12T18:35:33;15.50;;;9.15;;
61617;SDS011;47518;51.776;9.370;2023-02-12T18:38:00;13.63;;;9.02;;
61617;SDS011;47518;51.776;9.370;2023-02-12T18:40:26;15.38;;;9.50;;
61617;SDS011;47518;51.776;9.370;2023-02-12T18:42:51;13.40;;;9.15;;
61617;SDS011;47518;51.776;9.370;2023-02-12T18:45:17;16.70;;;9.40;;
61617;SDS011;47518;51.776;9.370;2023-02-12T18:47:43;15.02;;;9.65;;
61617;SDS011;47518;51.776;9.370;2023-02-12T18:50:09;14.50;;;9.65;;
61617;SDS011;47518;51.776;9.370;2023-02-12T18:52:34;13.77;;;9.05;;
61617;SDS011;47518;51.776;9.370;2023-02-12T18:55:01;13.98;;;8.88;;
61617;SDS011;47518;51.776;9.370;2023-02-12T18:57:26;14.45;;;9.52;;
61617;SDS011;47518;51.776;9.370;2023-02-12T18:59:51;15.88;;;9.32;;
61617;SDS011;47518;51.776;9.370;2023-02-12T19:02:17;15.00;;;8.38;;
61617;SDS011;47518;51.776;9.370;2023-02-12T19:04:42;12.20;;;8.45;;
61617;SDS011;47518;51.776;9.370;2023-02-12T19:07:07;13.35;;;8.75;;
61617;SDS011;47518;51.776;9.370;2023-02-12T19:09:33;14.07;;;8.57;;
61617;SDS011;47518;51.776;9.370;2023-02-12T19:11:59;12.23;;;8.32;;
61617;SDS011;47518;51.776;9.370;2023-02-12T19:14:24;11.93;;;8.43;;
61617;SDS011;47518;51.776;9.370;2023-02-12T19:16:51;14.02;;;9.05;;
61617;SDS011;47518;51.776;9.370;2023-02-12T19:19:17;18.13;;;11.70;;
61617;SDS011;47518;51.776;9.370;2023-02-12T19:21:43;25.38;;;14.95;;
61617;SDS011;47518;51.776;9.370;2023-02-12T19:24:10;25.67;;;14.95;;
61617;SDS011;47518;51.776;9.370;2023-02-12T19:26:36;24.63;;;14.43;;
61617;SDS011;47518;51.776;9.370;2023-02-12T19:29:02;25.80;;;15.02;;
61617;SDS011;47518;51.776;9.370;2023-02-12T19:31:31;29.30;;;15.52;;
61617;SDS011;47518;51.776;9.370;2023-02-12T19:34:00;27.67;;;15.70;;
61617;SDS011;47518;51.776;9.370;2023-02-12T19:36:28;30.83;;;15.55;;
61617;SDS011;47518;51.776;9.370;2023-02-12T19:38:56;56.78;;;19.80;;
61617;SDS011;47518;51.776;9.370;2023-02-12T19:41:23;47.58;;;18.05;;
61617;SDS011;47518;51.776;9.370;2023-02-12T19:43:54;27.77;;;11.35;;
61617;SDS011;47518;51.776;9.370;2023-02-12T19:46:22;11.65;;;7.43;;
61617;SDS011;47518;51.776;9.370;2023-02-12T19:48:48;9.90;;;6.40;;
61617;SDS011;47518;51.776;9.370;2023-02-12T19:51:14;9.38;;;6.30;;
61617;SDS011;47518;51.776;9.370;2023-02-12T19:53:42;7.05;;;5.47;;
61617;SDS011;47518;51.776;9.370;2023-02-12T19:56:08;9.15;;;6.90;;
61617;SDS011;47518;51.776;9.370;2023-02-12T19:58:34;11.68;;;8.10;;
61617;SDS011;47518;51.776;9.370;2023-02-12T20:01:00;12.27;;;8.13;;
61617;SDS011;47518;51.776;9.370;2023-02-12T20:05:59;10.70;;;6.85;;
61617;SDS011;47518;51.776;9.370;2023-02-12T20:08:26;9.65;;;7.28;;
61617;SDS011;47518;51.776;9.370;2023-02-12T20:10:51;11.07;;;8.48;;
61617;SDS011;47518;51.776;9.370;2023-02-12T20:13:17;15.40;;;9.82;;
61617;SDS011;47518;51.776;9.370;2023-02-12T20:15:43;12.70;;;9.10;;
61617;SDS011;47518;51.776;9.370;2023-02-12T20:18:09;13.05;;;9.52;;
61617;SDS011;47518;51.776;9.370;2023-02-12T20:20:34;14.80;;;9.35;;
61617;SDS011;47518;51.776;9.370;2023-02-12T20:23:00;12.13;;;8.85;;
61617;SDS011;47518;51.776;9.370;2023-02-12T20:25:25;11.77;;;7.90;;